Waterloo Airport
CYKF : now visible

Airfield :











YOU CAN JOIN US ON...

 
LOGIN :

Register | Disclaimer

   EN    FR    IT 

 









Legend :    VFR   Marginal VFR   IFR   Intensive IFR   Very Intensive IFR
Visi :
Ceiling :
>= 8 km
>= 3000ft
5 to 8 km
1000 to 3000 ft
1500m to 5 km
500 to 1000 ft
800 to 1500m
200 to 500 ft
< 800m
< 200 ft
Symbols :   Thunderstorms  Fog  Heavy snow  Heavy precipitations  Wind > 20 kt






- Airport Elevation : 1054 ft
- IATA code : YKF


CYKF - Waterloo

CURRENT METAR :
  • 280712Z AUTO 31009KT 9SM BKN008 BKN012 OVC027 03/02 A2962 RMK SLP042

EXPIRED METARs :
  • 280653Z AUTO 32010G15KT 6SM BR BKN006 BKN013 OVC027 03/02 A2961 RMK SLP037
  • 280600Z AUTO 30007KT 9SM OVC010 03/02 A2959 RMK SLP030
  • 280510Z AUTO 30006KT 9SM OVC008 03/02 A2956 RMK SLP019

TAF TAF CYKF
Valid from the 28 at 08:00 until the 28 at 20:00 UTC


280740Z 2808/2820 31010KT P6SM OVC012
TEMPO 2808/2816 SCT012 OVC025
PROB30 2808/2812 OVC008
FM281600 32010KT P6SM BKN020
TEMPO 2816/2820 BKN025 RMK FCST BASED ON AUTO OBS. NXT FCST BY 281400Z
CZYZ FIR / North America



MET'MAP, your aeronautical weather chart ! - Copyright ORBIFLY December 2007 - Disclaimer

ORBIFLY MET'MAP TEAM :

Programming & Development : Alexandra Zaïnal
Original concept : Baudouin d'Aumeries
Technical & hardware support : Manuel Goepfert
Assistance : Marc-Olivier Méhu




SOURCES & CREDITS :

   NOAA       Earth
Advisory